sensor_id;sensor_type;location;lat;lon;timestamp;P1;durP1;ratioP1;P2;durP2;ratioP2
9424;SDS011;17139;52.140;11.636;2022-12-22T00:00:12;2.40;;;2.30;;
9424;SDS011;17139;52.140;11.636;2022-12-22T00:02:57;2.30;;;2.20;;
9424;SDS011;17139;52.140;11.636;2022-12-22T00:05:41;1.90;;;1.80;;
9424;SDS011;17139;52.140;11.636;2022-12-22T00:08:25;2.50;;;2.40;;
9424;SDS011;17139;52.140;11.636;2022-12-22T00:11:10;2.88;;;2.78;;
9424;SDS011;17139;52.140;11.636;2022-12-22T00:13:56;2.60;;;2.40;;
9424;SDS011;17139;52.140;11.636;2022-12-22T00:16:43;2.67;;;2.57;;
9424;SDS011;17139;52.140;11.636;2022-12-22T00:19:28;2.13;;;2.03;;
9424;SDS011;17139;52.140;11.636;2022-12-22T00:22:13;2.33;;;2.23;;
9424;SDS011;17139;52.140;11.636;2022-12-22T00:25:01;5.13;;;2.13;;
9424;SDS011;17139;52.140;11.636;2022-12-22T00:27:46;1.93;;;1.83;;
9424;SDS011;17139;52.140;11.636;2022-12-22T00:30:30;3.08;;;2.83;;
9424;SDS011;17139;52.140;11.636;2022-12-22T00:33:17;2.33;;;2.13;;
9424;SDS011;17139;52.140;11.636;2022-12-22T00:36:03;1.80;;;1.80;;
9424;SDS011;17139;52.140;11.636;2022-12-22T00:38:50;6.22;;;3.55;;
9424;SDS011;17139;52.140;11.636;2022-12-22T00:41:35;6.27;;;2.53;;
9424;SDS011;17139;52.140;11.636;2022-12-22T00:44:19;2.97;;;2.77;;
9424;SDS011;17139;52.140;11.636;2022-12-22T00:47:03;2.10;;;2.00;;
9424;SDS011;17139;52.140;11.636;2022-12-22T00:49:49;2.13;;;2.07;;
9424;SDS011;17139;52.140;11.636;2022-12-22T00:52:34;2.17;;;2.07;;
9424;SDS011;17139;52.140;11.636;2022-12-22T00:55:20;2.80;;;2.70;;
9424;SDS011;17139;52.140;11.636;2022-12-22T00:58:11;2.43;;;2.33;;
9424;SDS011;17139;52.140;11.636;2022-12-22T01:00:58;2.20;;;2.10;;
9424;SDS011;17139;52.140;11.636;2022-12-22T01:03:43;3.50;;;3.20;;
9424;SDS011;17139;52.140;11.636;2022-12-22T01:06:29;3.50;;;3.30;;
9424;SDS011;17139;52.140;11.636;2022-12-22T01:09:17;3.10;;;2.90;;
9424;SDS011;17139;52.140;11.636;2022-12-22T01:12:02;3.53;;;3.33;;
9424;SDS011;17139;52.140;11.636;2022-12-22T01:14:47;3.00;;;2.90;;
9424;SDS011;17139;52.140;11.636;2022-12-22T01:17:31;3.10;;;2.80;;
9424;SDS011;17139;52.140;11.636;2022-12-22T01:20:16;4.23;;;3.93;;
9424;SDS011;17139;52.140;11.636;2022-12-22T01:23:02;3.00;;;2.90;;
9424;SDS011;17139;52.140;11.636;2022-12-22T01:25:50;5.65;;;5.25;;
9424;SDS011;17139;52.140;11.636;2022-12-22T01:28:35;6.95;;;6.55;;
9424;SDS011;17139;52.140;11.636;2022-12-22T01:31:23;4.10;;;3.90;;
9424;SDS011;17139;52.140;11.636;2022-12-22T01:34:10;4.50;;;4.27;;
9424;SDS011;17139;52.140;11.636;2022-12-22T01:36:55;3.90;;;3.70;;
9424;SDS011;17139;52.140;11.636;2022-12-22T01:39:41;4.40;;;4.20;;
9424;SDS011;17139;52.140;11.636;2022-12-22T01:42:25;3.30;;;3.20;;
9424;SDS011;17139;52.140;11.636;2022-12-22T01:45:14;3.47;;;3.37;;
9424;SDS011;17139;52.140;11.636;2022-12-22T01:48:06;5.70;;;5.30;;
9424;SDS011;17139;52.140;11.636;2022-12-22T01:50:54;7.28;;;6.57;;
9424;SDS011;17139;52.140;11.636;2022-12-22T01:53:39;4.80;;;4.50;;
9424;SDS011;17139;52.140;11.636;2022-12-22T01:56:25;3.90;;;3.70;;
9424;SDS011;17139;52.140;11.636;2022-12-22T01:59:09;4.50;;;4.20;;
9424;SDS011;17139;52.140;11.636;2022-12-22T02:01:54;3.83;;;3.53;;
9424;SDS011;17139;52.140;11.636;2022-12-22T02:04:40;6.83;;;4.07;;
9424;SDS011;17139;52.140;11.636;2022-12-22T02:07:35;4.40;;;4.10;;
9424;SDS011;17139;52.140;11.636;2022-12-22T02:13:52;4.27;;;4.07;;
9424;SDS011;17139;52.140;11.636;2022-12-22T02:17:00;5.33;;;4.93;;
9424;SDS011;17139;52.140;11.636;2022-12-22T02:19:55;6.13;;;5.72;;
9424;SDS011;17139;52.140;11.636;2022-12-22T02:23:00;4.97;;;4.57;;
9424;SDS011;17139;52.140;11.636;2022-12-22T02:25:52;4.90;;;4.27;;
9424;SDS011;17139;52.140;11.636;2022-12-22T02:28:43;4.40;;;4.00;;
9424;SDS011;17139;52.140;11.636;2022-12-22T02:31:32;4.00;;;3.80;;
9424;SDS011;17139;52.140;11.636;2022-12-22T02:34:18;6.20;;;3.80;;
9424;SDS011;17139;52.140;11.636;2022-12-22T02:37:03;3.57;;;3.47;;
9424;SDS011;17139;52.140;11.636;2022-12-22T02:39:56;4.37;;;4.17;;
9424;SDS011;17139;52.140;11.636;2022-12-22T02:42:53;3.97;;;3.67;;
9424;SDS011;17139;52.140;11.636;2022-12-22T02:45:44;5.40;;;5.07;;
9424;SDS011;17139;52.140;11.636;2022-12-22T02:48:36;6.50;;;5.97;;
9424;SDS011;17139;52.140;11.636;2022-12-22T02:51:28;4.67;;;4.17;;
9424;SDS011;17139;52.140;11.636;2022-12-22T02:54:16;3.80;;;3.60;;
9424;SDS011;17139;52.140;11.636;2022-12-22T02:57:02;3.83;;;3.63;;
9424;SDS011;17139;52.140;11.636;2022-12-22T02:59:46;3.83;;;3.63;;
9424;SDS011;17139;52.140;11.636;2022-12-22T03:02:32;12.10;;;3.67;;
9424;SDS011;17139;52.140;11.636;2022-12-22T03:05:17;5.70;;;3.03;;
9424;SDS011;17139;52.140;11.636;2022-12-22T03:08:01;3.10;;;2.93;;
9424;SDS011;17139;52.140;11.636;2022-12-22T03:10:46;3.07;;;2.97;;
9424;SDS011;17139;52.140;11.636;2022-12-22T03:13:30;4.60;;;4.40;;
9424;SDS011;17139;52.140;11.636;2022-12-22T03:16:14;5.45;;;4.97;;
9424;SDS011;17139;52.140;11.636;2022-12-22T03:19:00;3.77;;;3.57;;
9424;SDS011;17139;52.140;11.636;2022-12-22T03:21:45;3.53;;;2.87;;
9424;SDS011;17139;52.140;11.636;2022-12-22T03:24:29;3.40;;;3.20;;
9424;SDS011;17139;52.140;11.636;2022-12-22T03:27:14;2.50;;;2.40;;
9424;SDS011;17139;52.140;11.636;2022-12-22T03:29:41;3.57;;;2.93;;
9424;SDS011;17139;52.140;11.636;2022-12-22T03:32:08;2.83;;;2.73;;
9424;SDS011;17139;52.140;11.636;2022-12-22T03:34:37;3.20;;;3.00;;
9424;SDS011;17139;52.140;11.636;2022-12-22T03:37:04;3.20;;;3.10;;
9424;SDS011;17139;52.140;11.636;2022-12-22T03:39:31;4.72;;;4.45;;
9424;SDS011;17139;52.140;11.636;2022-12-22T03:41:58;4.73;;;4.47;;
9424;SDS011;17139;52.140;11.636;2022-12-22T03:44:42;3.50;;;3.30;;
9424;SDS011;17139;52.140;11.636;2022-12-22T03:47:26;3.10;;;3.00;;
9424;SDS011;17139;52.140;11.636;2022-12-22T03:49:55;3.27;;;3.07;;
9424;SDS011;17139;52.140;11.636;2022-12-22T03:52:22;3.20;;;3.00;;
9424;SDS011;17139;52.140;11.636;2022-12-22T03:54:49;3.20;;;3.00;;
9424;SDS011;17139;52.140;11.636;2022-12-22T03:57:16;3.23;;;3.03;;
9424;SDS011;17139;52.140;11.636;2022-12-22T03:59:43;2.53;;;2.40;;
9424;SDS011;17139;52.140;11.636;2022-12-22T04:02:10;2.57;;;2.47;;
9424;SDS011;17139;52.140;11.636;2022-12-22T04:04:37;4.03;;;3.83;;
9424;SDS011;17139;52.140;11.636;2022-12-22T04:07:06;2.87;;;2.77;;
9424;SDS011;17139;52.140;11.636;2022-12-22T04:09:33;2.87;;;2.77;;
9424;SDS011;17139;52.140;11.636;2022-12-22T04:12:00;8.43;;;2.83;;
9424;SDS011;17139;52.140;11.636;2022-12-22T04:14:44;2.67;;;2.57;;
9424;SDS011;17139;52.140;11.636;2022-12-22T04:17:11;2.83;;;2.73;;
9424;SDS011;17139;52.140;11.636;2022-12-22T04:19:38;3.13;;;2.93;;
9424;SDS011;17139;52.140;11.636;2022-12-22T04:22:07;2.47;;;2.37;;
9424;SDS011;17139;52.140;11.636;2022-12-22T04:24:34;3.17;;;2.97;;
9424;SDS011;17139;52.140;11.636;2022-12-22T04:27:01;2.70;;;2.60;;
9424;SDS011;17139;52.140;11.636;2022-12-22T04:29:29;2.53;;;2.43;;
9424;SDS011;17139;52.140;11.636;2022-12-22T04:31:56;2.73;;;2.63;;
9424;SDS011;17139;52.140;11.636;2022-12-22T04:34:23;2.50;;;2.40;;
9424;SDS011;17139;52.140;11.636;2022-12-22T04:36:50;2.87;;;2.67;;
9424;SDS011;17139;52.140;11.636;2022-12-22T04:39:19;3.27;;;3.07;;
9424;SDS011;17139;52.140;11.636;2022-12-22T04:41:46;4.07;;;3.90;;
9424;SDS011;17139;52.140;11.636;2022-12-22T04:44:13;5.07;;;4.57;;
9424;SDS011;17139;52.140;11.636;2022-12-22T04:46:40;3.07;;;2.90;;
9424;SDS011;17139;52.140;11.636;2022-12-22T04:49:07;3.10;;;2.80;;
9424;SDS011;17139;52.140;11.636;2022-12-22T04:51:34;3.17;;;2.97;;
9424;SDS011;17139;52.140;11.636;2022-12-22T04:54:01;3.00;;;2.90;;
9424;SDS011;17139;52.140;11.636;2022-12-22T04:56:30;3.07;;;2.97;;
9424;SDS011;17139;52.140;11.636;2022-12-22T04:58:57;2.80;;;2.70;;
9424;SDS011;17139;52.140;11.636;2022-12-22T05:01:24;3.10;;;2.90;;
9424;SDS011;17139;52.140;11.636;2022-12-22T05:03:51;2.73;;;2.63;;
9424;SDS011;17139;52.140;11.636;2022-12-22T05:06:18;2.80;;;2.70;;
9424;SDS011;17139;52.140;11.636;2022-12-22T05:08:45;3.70;;;3.50;;
9424;SDS011;17139;52.140;11.636;2022-12-22T05:11:12;2.77;;;2.67;;
9424;SDS011;17139;52.140;11.636;2022-12-22T05:13:41;2.90;;;2.80;;
9424;SDS011;17139;52.140;11.636;2022-12-22T05:16:09;5.27;;;3.10;;
9424;SDS011;17139;52.140;11.636;2022-12-22T05:18:38;3.40;;;3.20;;
9424;SDS011;17139;52.140;11.636;2022-12-22T05:21:08;3.50;;;3.23;;
9424;SDS011;17139;52.140;11.636;2022-12-22T05:23:36;3.30;;;3.20;;
9424;SDS011;17139;52.140;11.636;2022-12-22T05:26:04;3.13;;;3.03;;
9424;SDS011;17139;52.140;11.636;2022-12-22T05:28:31;3.27;;;3.17;;
9424;SDS011;17139;52.140;11.636;2022-12-22T05:31:03;4.72;;;4.53;;
9424;SDS011;17139;52.140;11.636;2022-12-22T05:33:30;5.28;;;4.97;;
9424;SDS011;17139;52.140;11.636;2022-12-22T05:35:57;3.53;;;3.33;;
9424;SDS011;17139;52.140;11.636;2022-12-22T05:38:24;3.97;;;3.77;;
9424;SDS011;17139;52.140;11.636;2022-12-22T05:40:51;7.17;;;3.23;;
9424;SDS011;17139;52.140;11.636;2022-12-22T05:43:19;3.30;;;3.10;;
9424;SDS011;17139;52.140;11.636;2022-12-22T05:45:46;3.63;;;2.70;;
9424;SDS011;17139;52.140;11.636;2022-12-22T05:48:15;3.40;;;3.30;;
9424;SDS011;17139;52.140;11.636;2022-12-22T05:50:42;3.53;;;3.33;;
9424;SDS011;17139;52.140;11.636;2022-12-22T05:53:09;4.13;;;3.92;;
9424;SDS011;17139;52.140;11.636;2022-12-22T05:55:36;5.10;;;4.80;;
9424;SDS011;17139;52.140;11.636;2022-12-22T05:58:03;4.23;;;4.03;;
9424;SDS011;17139;52.140;11.636;2022-12-22T06:00:30;4.07;;;3.87;;
9424;SDS011;17139;52.140;11.636;2022-12-22T06:02:58;3.33;;;3.10;;
9424;SDS011;17139;52.140;11.636;2022-12-22T06:05:26;3.90;;;3.70;;
9424;SDS011;17139;52.140;11.636;2022-12-22T06:07:53;3.30;;;3.20;;
9424;SDS011;17139;52.140;11.636;2022-12-22T06:10:20;3.20;;;3.10;;
9424;SDS011;17139;52.140;11.636;2022-12-22T06:12:48;3.63;;;3.43;;
9424;SDS011;17139;52.140;11.636;2022-12-22T06:15:15;5.18;;;4.97;;
9424;SDS011;17139;52.140;11.636;2022-12-22T06:17:42;4.13;;;3.93;;
9424;SDS011;17139;52.140;11.636;2022-12-22T06:20:10;4.67;;;4.20;;
9424;SDS011;17139;52.140;11.636;2022-12-22T06:22:39;3.73;;;3.53;;
9424;SDS011;17139;52.140;11.636;2022-12-22T06:25:06;3.17;;;3.07;;
9424;SDS011;17139;52.140;11.636;2022-12-22T06:27:34;5.57;;;5.38;;
9424;SDS011;17139;52.140;11.636;2022-12-22T06:30:01;4.27;;;4.07;;
9424;SDS011;17139;52.140;11.636;2022-12-22T06:32:28;3.57;;;3.37;;
9424;SDS011;17139;52.140;11.636;2022-12-22T06:34:55;3.37;;;3.27;;
9424;SDS011;17139;52.140;11.636;2022-12-22T06:37:22;3.57;;;3.37;;
9424;SDS011;17139;52.140;11.636;2022-12-22T06:39:51;3.80;;;3.70;;
9424;SDS011;17139;52.140;11.636;2022-12-22T06:42:18;3.60;;;3.50;;
9424;SDS011;17139;52.140;11.636;2022-12-22T06:45:03;3.70;;;3.50;;
9424;SDS011;17139;52.140;11.636;2022-12-22T06:47:30;4.73;;;3.83;;
9424;SDS011;17139;52.140;11.636;2022-12-22T06:49:57;3.83;;;3.60;;
9424;SDS011;17139;52.140;11.636;2022-12-22T06:52:24;3.63;;;3.53;;
9424;SDS011;17139;52.140;11.636;2022-12-22T06:54:53;7.05;;;5.95;;
9424;SDS011;17139;52.140;11.636;2022-12-22T06:57:20;3.73;;;3.63;;
9424;SDS011;17139;52.140;11.636;2022-12-22T06:59:47;4.07;;;3.83;;
9424;SDS011;17139;52.140;11.636;2022-12-22T07:02:14;3.47;;;3.33;;
9424;SDS011;17139;52.140;11.636;2022-12-22T07:04:41;6.43;;;3.67;;
9424;SDS011;17139;52.140;11.636;2022-12-22T07:07:09;4.03;;;3.83;;
9424;SDS011;17139;52.140;11.636;2022-12-22T07:09:36;3.80;;;3.60;;
9424;SDS011;17139;52.140;11.636;2022-12-22T07:12:05;3.50;;;3.30;;
9424;SDS011;17139;52.140;11.636;2022-12-22T07:14:33;3.43;;;3.33;;
9424;SDS011;17139;52.140;11.636;2022-12-22T07:17:00;3.07;;;2.97;;
9424;SDS011;17139;52.140;11.636;2022-12-22T07:19:27;6.17;;;5.87;;
9424;SDS011;17139;52.140;11.636;2022-12-22T07:21:54;6.47;;;6.18;;
9424;SDS011;17139;52.140;11.636;2022-12-22T07:24:21;4.30;;;4.10;;
9424;SDS011;17139;52.140;11.636;2022-12-22T07:26:50;4.47;;;4.13;;
9424;SDS011;17139;52.140;11.636;2022-12-22T07:29:21;3.60;;;3.50;;
9424;SDS011;17139;52.140;11.636;2022-12-22T07:31:48;4.13;;;3.93;;
9424;SDS011;17139;52.140;11.636;2022-12-22T07:34:15;4.20;;;4.00;;
9424;SDS011;17139;52.140;11.636;2022-12-22T07:36:43;3.90;;;3.70;;
9424;SDS011;17139;52.140;11.636;2022-12-22T07:39:10;3.30;;;3.20;;
9424;SDS011;17139;52.140;11.636;2022-12-22T07:41:37;5.47;;;5.20;;
9424;SDS011;17139;52.140;11.636;2022-12-22T07:44:23;3.70;;;3.50;;
9424;SDS011;17139;52.140;11.636;2022-12-22T07:46:50;3.80;;;3.60;;
9424;SDS011;17139;52.140;11.636;2022-12-22T07:49:19;3.60;;;3.50;;
9424;SDS011;17139;52.140;11.636;2022-12-22T07:52:04;4.00;;;3.33;;
9424;SDS011;17139;52.140;11.636;2022-12-22T07:54:32;3.87;;;3.63;;
9424;SDS011;17139;52.140;11.636;2022-12-22T07:57:00;3.63;;;3.43;;
9424;SDS011;17139;52.140;11.636;2022-12-22T07:59:28;4.07;;;3.87;;
9424;SDS011;17139;52.140;11.636;2022-12-22T08:01:55;4.57;;;4.17;;
9424;SDS011;17139;52.140;11.636;2022-12-22T08:04:22;6.32;;;5.82;;
9424;SDS011;17139;52.140;11.636;2022-12-22T08:06:50;5.93;;;4.57;;
9424;SDS011;17139;52.140;11.636;2022-12-22T08:09:17;3.67;;;3.43;;
9424;SDS011;17139;52.140;11.636;2022-12-22T08:11:45;4.95;;;4.75;;
9424;SDS011;17139;52.140;11.636;2022-12-22T08:14:14;4.10;;;3.80;;
9424;SDS011;17139;52.140;11.636;2022-12-22T08:16:42;3.77;;;3.57;;
9424;SDS011;17139;52.140;11.636;2022-12-22T08:19:09;3.53;;;3.33;;
9424;SDS011;17139;52.140;11.636;2022-12-22T08:21:37;4.17;;;3.87;;
9424;SDS011;17139;52.140;11.636;2022-12-22T08:24:04;3.27;;;3.10;;
9424;SDS011;17139;52.140;11.636;2022-12-22T08:26:33;3.50;;;3.40;;
9424;SDS011;17139;52.140;11.636;2022-12-22T08:29:05;3.50;;;3.30;;
9424;SDS011;17139;52.140;11.636;2022-12-22T08:31:34;3.40;;;3.20;;
9424;SDS011;17139;52.140;11.636;2022-12-22T08:34:03;3.40;;;3.30;;
9424;SDS011;17139;52.140;11.636;2022-12-22T08:36:33;4.03;;;3.83;;
9424;SDS011;17139;52.140;11.636;2022-12-22T08:39:04;5.40;;;5.10;;
9424;SDS011;17139;52.140;11.636;2022-12-22T08:41:32;3.67;;;3.47;;
9424;SDS011;17139;52.140;11.636;2022-12-22T08:44:15;6.77;;;3.10;;
9424;SDS011;17139;52.140;11.636;2022-12-22T08:46:46;9.93;;;2.90;;
9424;SDS011;17139;52.140;11.636;2022-12-22T08:49:14;3.23;;;3.03;;
9424;SDS011;17139;52.140;11.636;2022-12-22T08:51:42;3.70;;;3.27;;
9424;SDS011;17139;52.140;11.636;2022-12-22T08:54:09;2.93;;;2.83;;
9424;SDS011;17139;52.140;11.636;2022-12-22T08:56:37;3.00;;;2.80;;
9424;SDS011;17139;52.140;11.636;2022-12-22T08:59:04;3.50;;;3.40;;
9424;SDS011;17139;52.140;11.636;2022-12-22T09:01:33;3.20;;;3.10;;
9424;SDS011;17139;52.140;11.636;2022-12-22T09:04:01;4.78;;;4.47;;
9424;SDS011;17139;52.140;11.636;2022-12-22T09:06:30;3.70;;;3.50;;
9424;SDS011;17139;52.140;11.636;2022-12-22T09:08:58;3.90;;;3.70;;
9424;SDS011;17139;52.140;11.636;2022-12-22T09:11:26;6.38;;;4.15;;
9424;SDS011;17139;52.140;11.636;2022-12-22T09:13:55;3.70;;;3.40;;
9424;SDS011;17139;52.140;11.636;2022-12-22T09:16:23;3.37;;;3.17;;
9424;SDS011;17139;52.140;11.636;2022-12-22T09:18:51;3.20;;;3.10;;
9424;SDS011;17139;52.140;11.636;2022-12-22T09:21:19;3.20;;;3.10;;
9424;SDS011;17139;52.140;11.636;2022-12-22T09:23:48;2.83;;;2.73;;
9424;SDS011;17139;52.140;11.636;2022-12-22T09:26:16;3.50;;;3.30;;
9424;SDS011;17139;52.140;11.636;2022-12-22T09:28:44;3.20;;;3.00;;
9424;SDS011;17139;52.140;11.636;2022-12-22T09:31:12;3.60;;;2.93;;
9424;SDS011;17139;52.140;11.636;2022-12-22T09:33:39;3.13;;;3.03;;
9424;SDS011;17139;52.140;11.636;2022-12-22T09:36:07;3.63;;;3.33;;
9424;SDS011;17139;52.140;11.636;2022-12-22T09:38:36;5.80;;;5.30;;
9424;SDS011;17139;52.140;11.636;2022-12-22T09:41:09;5.90;;;5.50;;
9424;SDS011;17139;52.140;11.636;2022-12-22T09:43:42;3.30;;;3.20;;
9424;SDS011;17139;52.140;11.636;2022-12-22T09:46:10;2.97;;;2.87;;
9424;SDS011;17139;52.140;11.636;2022-12-22T09:48:44;3.20;;;3.10;;
9424;SDS011;17139;52.140;11.636;2022-12-22T09:51:12;2.90;;;2.80;;
9424;SDS011;17139;52.140;11.636;2022-12-22T09:53:41;3.63;;;3.40;;
9424;SDS011;17139;52.140;11.636;2022-12-22T09:56:12;3.30;;;3.10;;
9424;SDS011;17139;52.140;11.636;2022-12-22T09:58:41;3.47;;;3.17;;
9424;SDS011;17139;52.140;11.636;2022-12-22T10:01:13;2.73;;;2.53;;
9424;SDS011;17139;52.140;11.636;2022-12-22T10:04:00;6.18;;;4.75;;
9424;SDS011;17139;52.140;11.636;2022-12-22T10:06:33;3.87;;;3.57;;
9424;SDS011;17139;52.140;11.636;2022-12-22T10:09:10;3.40;;;3.20;;
9424;SDS011;17139;52.140;11.636;2022-12-22T10:11:54;3.27;;;3.07;;
9424;SDS011;17139;52.140;11.636;2022-12-22T10:14:23;2.97;;;2.87;;
9424;SDS011;17139;52.140;11.636;2022-12-22T10:19:42;2.97;;;2.87;;
9424;SDS011;17139;52.140;11.636;2022-12-22T10:22:16;2.77;;;2.67;;
9424;SDS011;17139;52.140;11.636;2022-12-22T10:24:48;3.13;;;2.67;;
9424;SDS011;17139;52.140;11.636;2022-12-22T10:27:16;4.13;;;3.92;;
9424;SDS011;17139;52.140;11.636;2022-12-22T10:29:46;3.23;;;3.13;;
9424;SDS011;17139;52.140;11.636;2022-12-22T10:32:13;2.90;;;2.80;;
9424;SDS011;17139;52.140;11.636;2022-12-22T10:34:54;3.97;;;3.78;;
9424;SDS011;17139;52.140;11.636;2022-12-22T10:37:28;2.70;;;2.60;;
9424;SDS011;17139;52.140;11.636;2022-12-22T10:39:58;2.88;;;2.60;;
9424;SDS011;17139;52.140;11.636;2022-12-22T10:42:39;2.83;;;2.72;;
9424;SDS011;17139;52.140;11.636;2022-12-22T10:45:15;2.53;;;2.33;;
9424;SDS011;17139;52.140;11.636;2022-12-22T10:47:45;3.07;;;2.87;;
9424;SDS011;17139;52.140;11.636;2022-12-22T10:50:15;5.80;;;2.80;;
9424;SDS011;17139;52.140;11.636;2022-12-22T10:52:48;2.23;;;2.13;;
9424;SDS011;17139;52.140;11.636;2022-12-22T10:55:17;2.40;;;2.30;;
9424;SDS011;17139;52.140;11.636;2022-12-22T10:57:48;2.43;;;2.33;;
9424;SDS011;17139;52.140;11.636;2022-12-22T11:00:23;4.60;;;3.20;;
9424;SDS011;17139;52.140;11.636;2022-12-22T11:02:52;5.20;;;3.20;;
9424;SDS011;17139;52.140;11.636;2022-12-22T11:05:20;2.80;;;2.70;;
9424;SDS011;17139;52.140;11.636;2022-12-22T11:07:47;2.40;;;2.30;;
9424;SDS011;17139;52.140;11.636;2022-12-22T11:10:15;2.90;;;2.80;;
9424;SDS011;17139;52.140;11.636;2022-12-22T11:12:52;2.20;;;2.10;;
9424;SDS011;17139;52.140;11.636;2022-12-22T11:15:41;2.03;;;1.90;;
9424;SDS011;17139;52.140;11.636;2022-12-22T11:18:19;2.53;;;2.33;;
9424;SDS011;17139;52.140;11.636;2022-12-22T11:21:01;2.60;;;2.40;;
9424;SDS011;17139;52.140;11.636;2022-12-22T11:23:35;2.03;;;1.93;;
9424;SDS011;17139;52.140;11.636;2022-12-22T11:26:10;3.40;;;3.10;;
9424;SDS011;17139;52.140;11.636;2022-12-22T11:28:56;2.17;;;2.08;;
9424;SDS011;17139;52.140;11.636;2022-12-22T11:31:53;2.60;;;2.50;;
9424;SDS011;17139;52.140;11.636;2022-12-22T11:34:35;2.50;;;2.33;;
9424;SDS011;17139;52.140;11.636;2022-12-22T11:37:15;2.00;;;1.90;;
9424;SDS011;17139;52.140;11.636;2022-12-22T11:39:53;2.28;;;1.75;;
9424;SDS011;17139;52.140;11.636;2022-12-22T11:42:37;2.00;;;1.90;;
9424;SDS011;17139;52.140;11.636;2022-12-22T11:45:21;2.38;;;1.63;;
9424;SDS011;17139;52.140;11.636;2022-12-22T11:48:03;4.05;;;1.77;;
9424;SDS011;17139;52.140;11.636;2022-12-22T11:50:42;3.35;;;3.05;;
9424;SDS011;17139;52.140;11.636;2022-12-22T11:53:21;3.42;;;2.45;;
9424;SDS011;17139;52.140;11.636;2022-12-22T11:56:04;3.08;;;1.50;;
9424;SDS011;17139;52.140;11.636;2022-12-22T11:58:42;2.47;;;2.38;;
9424;SDS011;17139;52.140;11.636;2022-12-22T12:01:30;1.58;;;1.48;;
9424;SDS011;17139;52.140;11.636;2022-12-22T12:04:09;1.70;;;1.70;;
9424;SDS011;17139;52.140;11.636;2022-12-22T12:06:54;1.67;;;1.67;;
9424;SDS011;17139;52.140;11.636;2022-12-22T12:09:36;2.40;;;2.30;;
9424;SDS011;17139;52.140;11.636;2022-12-22T12:12:12;2.63;;;2.00;;
9424;SDS011;17139;52.140;11.636;2022-12-22T12:14:47;2.20;;;2.08;;
9424;SDS011;17139;52.140;11.636;2022-12-22T12:17:23;1.63;;;1.53;;
9424;SDS011;17139;52.140;11.636;2022-12-22T12:20:03;2.25;;;1.85;;
9424;SDS011;17139;52.140;11.636;2022-12-22T12:22:41;1.70;;;1.70;;
9424;SDS011;17139;52.140;11.636;2022-12-22T12:25:20;1.45;;;1.45;;
9424;SDS011;17139;52.140;11.636;2022-12-22T12:27:56;1.80;;;1.75;;
9424;SDS011;17139;52.140;11.636;2022-12-22T12:30:32;1.35;;;1.35;;
9424;SDS011;17139;52.140;11.636;2022-12-22T12:33:08;2.08;;;1.88;;
9424;SDS011;17139;52.140;11.636;2022-12-22T12:35:45;1.38;;;1.38;;
9424;SDS011;17139;52.140;11.636;2022-12-22T12:38:23;3.20;;;3.10;;
9424;SDS011;17139;52.140;11.636;2022-12-22T12:40:56;2.80;;;2.65;;
9424;SDS011;17139;52.140;11.636;2022-12-22T12:43:31;3.10;;;3.00;;
9424;SDS011;17139;52.140;11.636;2022-12-22T12:45:59;4.10;;;3.83;;
9424;SDS011;17139;52.140;11.636;2022-12-22T12:48:49;3.70;;;2.95;;
9424;SDS011;17139;52.140;11.636;2022-12-22T12:54:22;3.17;;;2.90;;
9424;SDS011;17139;52.140;11.636;2022-12-22T12:57:20;3.10;;;2.90;;
9424;SDS011;17139;52.140;11.636;2022-12-22T12:59:53;1.95;;;1.90;;
9424;SDS011;17139;52.140;11.636;2022-12-22T13:02:30;2.22;;;2.13;;
9424;SDS011;17139;52.140;11.636;2022-12-22T13:05:01;2.20;;;2.10;;
9424;SDS011;17139;52.140;11.636;2022-12-22T13:10:30;2.25;;;2.15;;
9424;SDS011;17139;52.140;11.636;2022-12-22T13:12:59;2.97;;;2.88;;
9424;SDS011;17139;52.140;11.636;2022-12-22T13:15:27;2.20;;;2.10;;
9424;SDS011;17139;52.140;11.636;2022-12-22T13:17:55;3.08;;;1.70;;
9424;SDS011;17139;52.140;11.636;2022-12-22T13:20:24;2.00;;;1.90;;
9424;SDS011;17139;52.140;11.636;2022-12-22T13:22:55;1.33;;;1.33;;
9424;SDS011;17139;52.140;11.636;2022-12-22T13:25:26;3.30;;;1.88;;
9424;SDS011;17139;52.140;11.636;2022-12-22T13:28:02;1.90;;;1.80;;
9424;SDS011;17139;52.140;11.636;2022-12-22T13:30:29;1.88;;;1.77;;
9424;SDS011;17139;52.140;11.636;2022-12-22T13:32:58;2.20;;;2.10;;
9424;SDS011;17139;52.140;11.636;2022-12-22T13:35:29;2.97;;;2.88;;
9424;SDS011;17139;52.140;11.636;2022-12-22T13:38:01;3.35;;;3.25;;
9424;SDS011;17139;52.140;11.636;2022-12-22T13:40:29;2.17;;;2.08;;
9424;SDS011;17139;52.140;11.636;2022-12-22T13:42:58;2.70;;;2.60;;
9424;SDS011;17139;52.140;11.636;2022-12-22T13:45:32;2.10;;;1.92;;
9424;SDS011;17139;52.140;11.636;2022-12-22T13:48:04;2.45;;;2.35;;
9424;SDS011;17139;52.140;11.636;2022-12-22T13:50:37;1.98;;;1.83;;
9424;SDS011;17139;52.140;11.636;2022-12-22T13:53:09;2.20;;;1.87;;
9424;SDS011;17139;52.140;11.636;2022-12-22T13:55:43;2.63;;;2.50;;
9424;SDS011;17139;52.140;11.636;2022-12-22T13:58:17;2.67;;;2.58;;
9424;SDS011;17139;52.140;11.636;2022-12-22T14:01:02;4.57;;;4.38;;
9424;SDS011;17139;52.140;11.636;2022-12-22T14:03:44;2.70;;;2.60;;
9424;SDS011;17139;52.140;11.636;2022-12-22T14:06:26;2.80;;;2.70;;
9424;SDS011;17139;52.140;11.636;2022-12-22T14:09:08;2.50;;;2.40;;
9424;SDS011;17139;52.140;11.636;2022-12-22T14:11:39;2.53;;;2.43;;
9424;SDS011;17139;52.140;11.636;2022-12-22T14:14:08;2.50;;;2.40;;
9424;SDS011;17139;52.140;11.636;2022-12-22T14:16:41;3.47;;;2.80;;
9424;SDS011;17139;52.140;11.636;2022-12-22T14:19:10;2.77;;;2.67;;
9424;SDS011;17139;52.140;11.636;2022-12-22T14:21:40;2.83;;;2.72;;
9424;SDS011;17139;52.140;11.636;2022-12-22T14:24:09;2.83;;;2.72;;
9424;SDS011;17139;52.140;11.636;2022-12-22T14:26:47;2.60;;;2.50;;
9424;SDS011;17139;52.140;11.636;2022-12-22T14:29:16;4.00;;;3.70;;
9424;SDS011;17139;52.140;11.636;2022-12-22T14:31:49;2.97;;;2.83;;
9424;SDS011;17139;52.140;11.636;2022-12-22T14:34:22;3.03;;;2.83;;
9424;SDS011;17139;52.140;11.636;2022-12-22T14:36:52;3.50;;;3.40;;
9424;SDS011;17139;52.140;11.636;2022-12-22T14:39:22;2.33;;;2.23;;
9424;SDS011;17139;52.140;11.636;2022-12-22T14:41:50;2.60;;;2.50;;
9424;SDS011;17139;52.140;11.636;2022-12-22T14:44:21;3.03;;;2.83;;
9424;SDS011;17139;52.140;11.636;2022-12-22T14:47:04;3.70;;;3.30;;
9424;SDS011;17139;52.140;11.636;2022-12-22T14:49:42;2.40;;;2.30;;
9424;SDS011;17139;52.140;11.636;2022-12-22T14:52:17;3.23;;;3.13;;
9424;SDS011;17139;52.140;11.636;2022-12-22T14:54:48;5.43;;;5.22;;
9424;SDS011;17139;52.140;11.636;2022-12-22T14:57:19;6.43;;;6.13;;
9424;SDS011;17139;52.140;11.636;2022-12-22T14:59:57;6.00;;;4.15;;
9424;SDS011;17139;52.140;11.636;2022-12-22T15:02:32;4.43;;;4.13;;
9424;SDS011;17139;52.140;11.636;2022-12-22T15:05:07;3.77;;;3.57;;
9424;SDS011;17139;52.140;11.636;2022-12-22T15:07:44;3.57;;;3.30;;
9424;SDS011;17139;52.140;11.636;2022-12-22T15:10:15;3.40;;;3.20;;
9424;SDS011;17139;52.140;11.636;2022-12-22T15:12:42;4.03;;;3.73;;
9424;SDS011;17139;52.140;11.636;2022-12-22T15:15:12;4.60;;;4.30;;
9424;SDS011;17139;52.140;11.636;2022-12-22T15:17:41;5.28;;;4.75;;
9424;SDS011;17139;52.140;11.636;2022-12-22T15:20:12;6.93;;;6.40;;
9424;SDS011;17139;52.140;11.636;2022-12-22T15:22:45;5.07;;;4.78;;
9424;SDS011;17139;52.140;11.636;2022-12-22T15:25:13;5.07;;;4.70;;
9424;SDS011;17139;52.140;11.636;2022-12-22T15:27:41;7.63;;;4.33;;
9424;SDS011;17139;52.140;11.636;2022-12-22T15:30:09;4.80;;;4.50;;
9424;SDS011;17139;52.140;11.636;2022-12-22T15:32:38;5.33;;;4.10;;
9424;SDS011;17139;52.140;11.636;2022-12-22T15:37:54;5.17;;;4.87;;
9424;SDS011;17139;52.140;11.636;2022-12-22T15:40:22;4.53;;;4.33;;
9424;SDS011;17139;52.140;11.636;2022-12-22T15:42:50;9.10;;;8.30;;
9424;SDS011;17139;52.140;11.636;2022-12-22T15:45:18;6.70;;;6.10;;